sensor_id;sensor_type;location;lat;lon;timestamp;temperature;humidity
10826;DHT22;5466;55.898;14.094;2024-03-22T00:00:56;6.00;99.90
10826;DHT22;5466;55.898;14.094;2024-03-22T00:02:56;6.00;99.90
10826;DHT22;5466;55.898;14.094;2024-03-22T00:04:57;6.00;99.90
10826;DHT22;5466;55.898;14.094;2024-03-22T00:06:57;6.00;99.90
10826;DHT22;5466;55.898;14.094;2024-03-22T00:08:58;6.00;99.90
10826;DHT22;5466;55.898;14.094;2024-03-22T00:10:59;6.00;99.90
10826;DHT22;5466;55.898;14.094;2024-03-22T00:12:59;6.00;99.90
10826;DHT22;5466;55.898;14.094;2024-03-22T00:15:00;6.00;99.90
10826;DHT22;5466;55.898;14.094;2024-03-22T00:17:00;6.10;99.90
10826;DHT22;5466;55.898;14.094;2024-03-22T00:19:01;6.00;99.90
10826;DHT22;5466;55.898;14.094;2024-03-22T00:21:02;6.00;99.90
10826;DHT22;5466;55.898;14.094;2024-03-22T00:23:03;5.90;99.90
10826;DHT22;5466;55.898;14.094;2024-03-22T00:25:04;5.90;99.90
10826;DHT22;5466;55.898;14.094;2024-03-22T00:27:05;6.00;99.90
10826;DHT22;5466;55.898;14.094;2024-03-22T00:29:06;6.00;99.90
10826;DHT22;5466;55.898;14.094;2024-03-22T00:31:06;6.00;99.90
10826;DHT22;5466;55.898;14.094;2024-03-22T00:33:07;6.00;99.90
10826;DHT22;5466;55.898;14.094;2024-03-22T00:35:08;6.00;99.90
10826;DHT22;5466;55.898;14.094;2024-03-22T00:37:08;6.00;99.90
10826;DHT22;5466;55.898;14.094;2024-03-22T00:39:09;6.00;99.90
10826;DHT22;5466;55.898;14.094;2024-03-22T00:41:09;6.00;99.90
10826;DHT22;5466;55.898;14.094;2024-03-22T00:43:10;6.00;99.90
10826;DHT22;5466;55.898;14.094;2024-03-22T00:45:10;6.00;99.90
10826;DHT22;5466;55.898;14.094;2024-03-22T00:47:11;6.00;99.90
10826;DHT22;5466;55.898;14.094;2024-03-22T00:49:11;6.00;99.90
10826;DHT22;5466;55.898;14.094;2024-03-22T00:51:13;6.00;99.90
10826;DHT22;5466;55.898;14.094;2024-03-22T00:53:13;6.00;99.90
10826;DHT22;5466;55.898;14.094;2024-03-22T00:55:14;6.00;99.90
10826;DHT22;5466;55.898;14.094;2024-03-22T00:57:15;6.00;99.90
10826;DHT22;5466;55.898;14.094;2024-03-22T00:59:15;6.00;99.90
10826;DHT22;5466;55.898;14.094;2024-03-22T01:01:17;6.10;99.90
10826;DHT22;5466;55.898;14.094;2024-03-22T01:03:17;6.10;99.90
10826;DHT22;5466;55.898;14.094;2024-03-22T01:05:18;6.10;99.90
10826;DHT22;5466;55.898;14.094;2024-03-22T01:07:18;6.10;99.90
10826;DHT22;5466;55.898;14.094;2024-03-22T01:09:19;6.10;99.90
10826;DHT22;5466;55.898;14.094;2024-03-22T01:11:20;6.20;99.90
10826;DHT22;5466;55.898;14.094;2024-03-22T01:13:21;6.20;99.90
10826;DHT22;5466;55.898;14.094;2024-03-22T01:15:21;6.10;99.90
10826;DHT22;5466;55.898;14.094;2024-03-22T01:17:22;6.10;99.90
10826;DHT22;5466;55.898;14.094;2024-03-22T01:19:23;6.10;99.90
10826;DHT22;5466;55.898;14.094;2024-03-22T01:21:23;6.10;99.90
10826;DHT22;5466;55.898;14.094;2024-03-22T01:23:25;6.10;99.90
10826;DHT22;5466;55.898;14.094;2024-03-22T01:25:28;6.10;99.90
10826;DHT22;5466;55.898;14.094;2024-03-22T01:27:28;6.10;99.90
10826;DHT22;5466;55.898;14.094;2024-03-22T01:29:29;6.10;99.90
10826;DHT22;5466;55.898;14.094;2024-03-22T01:31:31;6.10;99.90
10826;DHT22;5466;55.898;14.094;2024-03-22T01:33:32;6.10;99.90
10826;DHT22;5466;55.898;14.094;2024-03-22T01:35:32;6.10;99.90
10826;DHT22;5466;55.898;14.094;2024-03-22T01:37:33;6.20;99.90
10826;DHT22;5466;55.898;14.094;2024-03-22T01:39:34;6.00;99.90
10826;DHT22;5466;55.898;14.094;2024-03-22T01:41:34;6.00;99.90
10826;DHT22;5466;55.898;14.094;2024-03-22T01:43:35;6.00;99.90
10826;DHT22;5466;55.898;14.094;2024-03-22T01:45:36;5.90;99.90
10826;DHT22;5466;55.898;14.094;2024-03-22T01:47:37;5.80;99.90
10826;DHT22;5466;55.898;14.094;2024-03-22T01:49:38;5.90;99.90
10826;DHT22;5466;55.898;14.094;2024-03-22T01:51:39;5.80;99.90
10826;DHT22;5466;55.898;14.094;2024-03-22T01:53:40;5.80;99.90
10826;DHT22;5466;55.898;14.094;2024-03-22T01:55:42;5.80;99.90
10826;DHT22;5466;55.898;14.094;2024-03-22T01:57:43;5.80;99.90
10826;DHT22;5466;55.898;14.094;2024-03-22T01:59:44;5.80;99.90
10826;DHT22;5466;55.898;14.094;2024-03-22T02:01:46;5.80;99.90
10826;DHT22;5466;55.898;14.094;2024-03-22T02:03:47;5.90;99.90
10826;DHT22;5466;55.898;14.094;2024-03-22T02:05:48;5.90;99.90
10826;DHT22;5466;55.898;14.094;2024-03-22T02:07:48;5.90;99.90
10826;DHT22;5466;55.898;14.094;2024-03-22T02:09:49;5.90;99.90
10826;DHT22;5466;55.898;14.094;2024-03-22T02:11:50;6.00;99.90
10826;DHT22;5466;55.898;14.094;2024-03-22T02:13:50;5.90;99.90
10826;DHT22;5466;55.898;14.094;2024-03-22T02:15:51;5.90;99.90
10826;DHT22;5466;55.898;14.094;2024-03-22T02:17:52;6.00;99.90
10826;DHT22;5466;55.898;14.094;2024-03-22T02:19:52;5.90;99.90
10826;DHT22;5466;55.898;14.094;2024-03-22T02:21:53;5.90;99.90
10826;DHT22;5466;55.898;14.094;2024-03-22T02:23:53;5.90;99.90
10826;DHT22;5466;55.898;14.094;2024-03-22T02:25:54;5.90;99.90
10826;DHT22;5466;55.898;14.094;2024-03-22T02:27:55;5.90;99.90
10826;DHT22;5466;55.898;14.094;2024-03-22T02:29:55;5.90;99.90
10826;DHT22;5466;55.898;14.094;2024-03-22T02:31:56;5.90;99.90
10826;DHT22;5466;55.898;14.094;2024-03-22T02:33:58;5.90;99.90
10826;DHT22;5466;55.898;14.094;2024-03-22T02:35:59;5.90;99.90
10826;DHT22;5466;55.898;14.094;2024-03-22T02:37:59;5.80;99.90
10826;DHT22;5466;55.898;14.094;2024-03-22T02:40:00;5.80;99.90
10826;DHT22;5466;55.898;14.094;2024-03-22T02:42:00;5.90;99.90
10826;DHT22;5466;55.898;14.094;2024-03-22T02:44:01;5.90;99.90
10826;DHT22;5466;55.898;14.094;2024-03-22T02:46:02;5.80;99.90
10826;DHT22;5466;55.898;14.094;2024-03-22T02:48:03;5.80;99.90
10826;DHT22;5466;55.898;14.094;2024-03-22T02:50:04;5.80;99.90
10826;DHT22;5466;55.898;14.094;2024-03-22T02:52:05;5.80;99.90
10826;DHT22;5466;55.898;14.094;2024-03-22T02:54:06;5.80;99.90
10826;DHT22;5466;55.898;14.094;2024-03-22T02:56:07;5.80;99.90
10826;DHT22;5466;55.898;14.094;2024-03-22T02:58:09;5.80;99.90
10826;DHT22;5466;55.898;14.094;2024-03-22T03:00:10;5.80;99.90
10826;DHT22;5466;55.898;14.094;2024-03-22T03:02:11;5.70;99.90
10826;DHT22;5466;55.898;14.094;2024-03-22T03:04:12;5.70;99.90
10826;DHT22;5466;55.898;14.094;2024-03-22T03:06:12;5.70;99.90
10826;DHT22;5466;55.898;14.094;2024-03-22T03:08:13;5.70;99.90
10826;DHT22;5466;55.898;14.094;2024-03-22T03:10:14;5.70;99.90
10826;DHT22;5466;55.898;14.094;2024-03-22T03:12:15;5.70;99.90
10826;DHT22;5466;55.898;14.094;2024-03-22T03:14:15;5.80;99.90
10826;DHT22;5466;55.898;14.094;2024-03-22T03:16:16;5.80;99.90
10826;DHT22;5466;55.898;14.094;2024-03-22T03:18:17;5.80;99.90
10826;DHT22;5466;55.898;14.094;2024-03-22T03:20:18;5.80;99.90
10826;DHT22;5466;55.898;14.094;2024-03-22T03:22:18;5.70;99.90
10826;DHT22;5466;55.898;14.094;2024-03-22T03:24:19;5.70;99.90
10826;DHT22;5466;55.898;14.094;2024-03-22T03:26:19;5.80;99.90
10826;DHT22;5466;55.898;14.094;2024-03-22T03:28:20;5.90;99.90
10826;DHT22;5466;55.898;14.094;2024-03-22T03:30:20;5.80;99.90
10826;DHT22;5466;55.898;14.094;2024-03-22T03:32:21;5.80;99.90
10826;DHT22;5466;55.898;14.094;2024-03-22T03:34:22;6.00;99.90
10826;DHT22;5466;55.898;14.094;2024-03-22T03:36:22;5.80;99.90
10826;DHT22;5466;55.898;14.094;2024-03-22T03:38:23;5.90;99.90
10826;DHT22;5466;55.898;14.094;2024-03-22T03:40:23;5.90;99.90
10826;DHT22;5466;55.898;14.094;2024-03-22T03:42:25;5.90;99.90
10826;DHT22;5466;55.898;14.094;2024-03-22T03:44:25;5.90;99.90
10826;DHT22;5466;55.898;14.094;2024-03-22T03:46:26;5.90;99.90
10826;DHT22;5466;55.898;14.094;2024-03-22T03:48:26;6.00;99.90
10826;DHT22;5466;55.898;14.094;2024-03-22T03:50:27;6.00;99.90
10826;DHT22;5466;55.898;14.094;2024-03-22T03:52:28;6.00;99.90
10826;DHT22;5466;55.898;14.094;2024-03-22T03:54:28;6.10;99.90
10826;DHT22;5466;55.898;14.094;2024-03-22T03:56:29;6.10;99.90
10826;DHT22;5466;55.898;14.094;2024-03-22T03:58:29;6.10;99.90
10826;DHT22;5466;55.898;14.094;2024-03-22T04:00:30;6.10;99.90
10826;DHT22;5466;55.898;14.094;2024-03-22T04:02:30;6.10;99.90
10826;DHT22;5466;55.898;14.094;2024-03-22T04:04:31;6.10;99.90
10826;DHT22;5466;55.898;14.094;2024-03-22T04:06:32;6.10;99.90
10826;DHT22;5466;55.898;14.094;2024-03-22T04:08:32;6.10;99.90
10826;DHT22;5466;55.898;14.094;2024-03-22T04:10:33;6.10;99.90
10826;DHT22;5466;55.898;14.094;2024-03-22T04:12:33;6.10;99.90
10826;DHT22;5466;55.898;14.094;2024-03-22T04:14:34;6.20;99.90
10826;DHT22;5466;55.898;14.094;2024-03-22T04:16:35;6.10;99.90
10826;DHT22;5466;55.898;14.094;2024-03-22T04:18:35;6.10;99.90
10826;DHT22;5466;55.898;14.094;2024-03-22T04:20:36;6.10;99.90
10826;DHT22;5466;55.898;14.094;2024-03-22T04:22:37;6.10;99.90
10826;DHT22;5466;55.898;14.094;2024-03-22T04:24:37;6.00;99.90
10826;DHT22;5466;55.898;14.094;2024-03-22T04:26:38;6.10;99.90
10826;DHT22;5466;55.898;14.094;2024-03-22T04:28:38;6.10;99.90
10826;DHT22;5466;55.898;14.094;2024-03-22T04:30:39;6.00;99.90
10826;DHT22;5466;55.898;14.094;2024-03-22T04:32:40;6.10;99.90
10826;DHT22;5466;55.898;14.094;2024-03-22T04:34:43;6.10;99.90
10826;DHT22;5466;55.898;14.094;2024-03-22T04:36:44;6.20;99.90
10826;DHT22;5466;55.898;14.094;2024-03-22T04:38:45;6.10;99.90
10826;DHT22;5466;55.898;14.094;2024-03-22T04:40:45;6.10;99.90
10826;DHT22;5466;55.898;14.094;2024-03-22T04:42:46;6.10;99.90
10826;DHT22;5466;55.898;14.094;2024-03-22T04:44:46;6.00;99.90
10826;DHT22;5466;55.898;14.094;2024-03-22T04:46:47;6.10;99.90
10826;DHT22;5466;55.898;14.094;2024-03-22T04:48:47;6.10;99.90
10826;DHT22;5466;55.898;14.094;2024-03-22T04:50:49;6.10;99.90
10826;DHT22;5466;55.898;14.094;2024-03-22T04:52:50;6.00;99.90
10826;DHT22;5466;55.898;14.094;2024-03-22T04:54:51;6.10;99.90
10826;DHT22;5466;55.898;14.094;2024-03-22T04:56:51;6.20;99.90
10826;DHT22;5466;55.898;14.094;2024-03-22T04:58:52;6.10;99.90
10826;DHT22;5466;55.898;14.094;2024-03-22T05:00:57;6.10;99.90
10826;DHT22;5466;55.898;14.094;2024-03-22T05:02:57;6.10;99.90
10826;DHT22;5466;55.898;14.094;2024-03-22T05:04:58;6.20;99.90
10826;DHT22;5466;55.898;14.094;2024-03-22T05:06:58;6.20;99.90
10826;DHT22;5466;55.898;14.094;2024-03-22T05:08:59;6.20;99.90
10826;DHT22;5466;55.898;14.094;2024-03-22T05:11:00;6.20;99.90
10826;DHT22;5466;55.898;14.094;2024-03-22T05:13:00;6.20;99.90
10826;DHT22;5466;55.898;14.094;2024-03-22T05:15:05;6.20;99.90
10826;DHT22;5466;55.898;14.094;2024-03-22T05:17:06;6.30;99.90
10826;DHT22;5466;55.898;14.094;2024-03-22T05:19:06;6.30;99.90
10826;DHT22;5466;55.898;14.094;2024-03-22T05:21:07;6.30;99.90
10826;DHT22;5466;55.898;14.094;2024-03-22T05:23:08;6.40;99.90
10826;DHT22;5466;55.898;14.094;2024-03-22T05:25:09;6.30;99.90
10826;DHT22;5466;55.898;14.094;2024-03-22T05:27:10;6.40;99.90
10826;DHT22;5466;55.898;14.094;2024-03-22T05:29:10;6.40;99.90
10826;DHT22;5466;55.898;14.094;2024-03-22T05:31:11;6.40;99.90
10826;DHT22;5466;55.898;14.094;2024-03-22T05:33:12;6.40;99.90
10826;DHT22;5466;55.898;14.094;2024-03-22T05:35:13;6.40;99.90
10826;DHT22;5466;55.898;14.094;2024-03-22T05:37:13;6.50;99.90
10826;DHT22;5466;55.898;14.094;2024-03-22T05:39:14;6.50;99.90
10826;DHT22;5466;55.898;14.094;2024-03-22T05:41:15;6.50;99.90
10826;DHT22;5466;55.898;14.094;2024-03-22T05:43:16;6.50;99.90
10826;DHT22;5466;55.898;14.094;2024-03-22T05:45:16;6.60;99.90
10826;DHT22;5466;55.898;14.094;2024-03-22T05:47:17;6.60;99.90
10826;DHT22;5466;55.898;14.094;2024-03-22T05:49:19;6.50;99.90
10826;DHT22;5466;55.898;14.094;2024-03-22T05:51:20;6.50;99.90
10826;DHT22;5466;55.898;14.094;2024-03-22T05:53:21;6.60;99.90
10826;DHT22;5466;55.898;14.094;2024-03-22T05:55:21;6.60;99.90
10826;DHT22;5466;55.898;14.094;2024-03-22T05:57:22;6.60;99.90
10826;DHT22;5466;55.898;14.094;2024-03-22T05:59:22;6.60;99.90
10826;DHT22;5466;55.898;14.094;2024-03-22T06:01:23;6.60;99.90
10826;DHT22;5466;55.898;14.094;2024-03-22T06:03:24;6.60;99.90
10826;DHT22;5466;55.898;14.094;2024-03-22T06:05:24;6.60;99.90
10826;DHT22;5466;55.898;14.094;2024-03-22T06:07:25;6.60;99.90
10826;DHT22;5466;55.898;14.094;2024-03-22T06:09:27;6.60;99.90
10826;DHT22;5466;55.898;14.094;2024-03-22T06:11:47;6.60;99.90
10826;DHT22;5466;55.898;14.094;2024-03-22T06:13:48;6.60;99.90
10826;DHT22;5466;55.898;14.094;2024-03-22T06:15:49;6.60;99.90
10826;DHT22;5466;55.898;14.094;2024-03-22T06:17:50;6.60;99.90
10826;DHT22;5466;55.898;14.094;2024-03-22T06:19:51;6.70;99.90
10826;DHT22;5466;55.898;14.094;2024-03-22T06:21:52;6.60;99.90
10826;DHT22;5466;55.898;14.094;2024-03-22T06:23:52;6.60;99.90
10826;DHT22;5466;55.898;14.094;2024-03-22T06:25:54;6.60;99.90
10826;DHT22;5466;55.898;14.094;2024-03-22T06:27:55;6.70;99.90
10826;DHT22;5466;55.898;14.094;2024-03-22T06:29:55;6.70;99.90
10826;DHT22;5466;55.898;14.094;2024-03-22T06:31:56;6.70;99.90
10826;DHT22;5466;55.898;14.094;2024-03-22T06:33:56;6.70;99.90
10826;DHT22;5466;55.898;14.094;2024-03-22T06:36:02;6.60;99.90
10826;DHT22;5466;55.898;14.094;2024-03-22T06:38:03;6.70;99.90
10826;DHT22;5466;55.898;14.094;2024-03-22T06:40:06;6.70;99.90
10826;DHT22;5466;55.898;14.094;2024-03-22T06:42:06;6.80;99.90
10826;DHT22;5466;55.898;14.094;2024-03-22T06:44:07;6.70;99.90
10826;DHT22;5466;55.898;14.094;2024-03-22T06:46:09;6.70;99.90
10826;DHT22;5466;55.898;14.094;2024-03-22T06:48:10;6.80;99.90
10826;DHT22;5466;55.898;14.094;2024-03-22T06:50:11;6.80;99.90
10826;DHT22;5466;55.898;14.094;2024-03-22T06:52:11;6.80;99.90
10826;DHT22;5466;55.898;14.094;2024-03-22T06:54:12;6.80;99.90
10826;DHT22;5466;55.898;14.094;2024-03-22T06:56:13;6.80;99.90
10826;DHT22;5466;55.898;14.094;2024-03-22T06:58:13;6.80;99.90
10826;DHT22;5466;55.898;14.094;2024-03-22T07:00:14;6.80;99.90
10826;DHT22;5466;55.898;14.094;2024-03-22T07:02:15;6.80;99.90
10826;DHT22;5466;55.898;14.094;2024-03-22T07:04:16;6.80;99.90
10826;DHT22;5466;55.898;14.094;2024-03-22T07:06:16;6.80;99.90
10826;DHT22;5466;55.898;14.094;2024-03-22T07:08:17;6.80;99.90
10826;DHT22;5466;55.898;14.094;2024-03-22T07:10:17;6.80;99.90
10826;DHT22;5466;55.898;14.094;2024-03-22T07:12:18;6.80;99.90
10826;DHT22;5466;55.898;14.094;2024-03-22T07:14:18;6.80;99.90
10826;DHT22;5466;55.898;14.094;2024-03-22T07:16:19;6.80;99.90
10826;DHT22;5466;55.898;14.094;2024-03-22T07:18:20;6.80;99.90
10826;DHT22;5466;55.898;14.094;2024-03-22T07:20:20;6.80;99.90
10826;DHT22;5466;55.898;14.094;2024-03-22T07:22:21;6.80;99.90
10826;DHT22;5466;55.898;14.094;2024-03-22T07:24:22;6.80;99.90
10826;DHT22;5466;55.898;14.094;2024-03-22T07:26:24;6.80;99.90
10826;DHT22;5466;55.898;14.094;2024-03-22T07:28:24;6.80;99.90
10826;DHT22;5466;55.898;14.094;2024-03-22T07:30:25;6.70;99.90
10826;DHT22;5466;55.898;14.094;2024-03-22T07:32:26;6.70;99.90
10826;DHT22;5466;55.898;14.094;2024-03-22T07:34:27;6.70;99.90
10826;DHT22;5466;55.898;14.094;2024-03-22T07:36:27;6.80;99.90
10826;DHT22;5466;55.898;14.094;2024-03-22T07:38:28;6.80;99.90
10826;DHT22;5466;55.898;14.094;2024-03-22T07:40:28;6.80;99.90
10826;DHT22;5466;55.898;14.094;2024-03-22T07:42:29;6.80;99.90
10826;DHT22;5466;55.898;14.094;2024-03-22T07:44:30;6.90;99.90
10826;DHT22;5466;55.898;14.094;2024-03-22T07:46:31;6.90;99.90
10826;DHT22;5466;55.898;14.094;2024-03-22T07:48:32;6.90;99.90
10826;DHT22;5466;55.898;14.094;2024-03-22T07:50:32;6.90;99.90
10826;DHT22;5466;55.898;14.094;2024-03-22T07:52:33;6.90;99.90
10826;DHT22;5466;55.898;14.094;2024-03-22T07:54:33;7.00;99.90
10826;DHT22;5466;55.898;14.094;2024-03-22T07:56:34;7.00;99.90
10826;DHT22;5466;55.898;14.094;2024-03-22T07:58:35;7.00;99.90
10826;DHT22;5466;55.898;14.094;2024-03-22T08:00:35;7.10;99.90
10826;DHT22;5466;55.898;14.094;2024-03-22T08:02:36;7.10;99.90
10826;DHT22;5466;55.898;14.094;2024-03-22T08:04:36;7.20;99.90
10826;DHT22;5466;55.898;14.094;2024-03-22T08:06:37;7.20;99.90
10826;DHT22;5466;55.898;14.094;2024-03-22T08:08:37;7.30;99.90
10826;DHT22;5466;55.898;14.094;2024-03-22T08:10:38;7.30;99.90
10826;DHT22;5466;55.898;14.094;2024-03-22T08:12:39;7.40;99.90
10826;DHT22;5466;55.898;14.094;2024-03-22T08:14:39;7.40;99.90
10826;DHT22;5466;55.898;14.094;2024-03-22T08:16:41;7.50;99.90
10826;DHT22;5466;55.898;14.094;2024-03-22T08:18:42;7.50;99.90
10826;DHT22;5466;55.898;14.094;2024-03-22T08:20:43;7.50;99.90
10826;DHT22;5466;55.898;14.094;2024-03-22T08:22:43;7.60;99.90
10826;DHT22;5466;55.898;14.094;2024-03-22T08:24:44;7.60;99.90
10826;DHT22;5466;55.898;14.094;2024-03-22T08:26:45;7.60;99.90
10826;DHT22;5466;55.898;14.094;2024-03-22T08:28:47;7.70;99.90
10826;DHT22;5466;55.898;14.094;2024-03-22T08:30:49;7.70;99.90
10826;DHT22;5466;55.898;14.094;2024-03-22T08:32:50;7.60;99.90
10826;DHT22;5466;55.898;14.094;2024-03-22T08:34:51;7.60;99.90
10826;DHT22;5466;55.898;14.094;2024-03-22T08:36:51;7.60;99.90
10826;DHT22;5466;55.898;14.094;2024-03-22T08:38:52;7.70;99.90
10826;DHT22;5466;55.898;14.094;2024-03-22T08:40:53;7.70;99.90
10826;DHT22;5466;55.898;14.094;2024-03-22T08:42:53;7.80;99.90
10826;DHT22;5466;55.898;14.094;2024-03-22T08:44:54;7.80;99.90
10826;DHT22;5466;55.898;14.094;2024-03-22T08:46:54;7.80;99.90
10826;DHT22;5466;55.898;14.094;2024-03-22T08:48:55;7.80;99.90
10826;DHT22;5466;55.898;14.094;2024-03-22T08:50:55;7.80;99.90
10826;DHT22;5466;55.898;14.094;2024-03-22T08:52:56;7.90;99.90
10826;DHT22;5466;55.898;14.094;2024-03-22T08:54:57;8.00;99.90
10826;DHT22;5466;55.898;14.094;2024-03-22T08:56:57;8.00;99.90
10826;DHT22;5466;55.898;14.094;2024-03-22T08:58:59;8.10;99.90
10826;DHT22;5466;55.898;14.094;2024-03-22T09:00:59;8.20;99.90
10826;DHT22;5466;55.898;14.094;2024-03-22T09:03:00;8.20;99.90
10826;DHT22;5466;55.898;14.094;2024-03-22T09:05:01;8.20;99.90
10826;DHT22;5466;55.898;14.094;2024-03-22T09:07:02;8.20;99.90
10826;DHT22;5466;55.898;14.094;2024-03-22T09:09:02;8.10;99.90
10826;DHT22;5466;55.898;14.094;2024-03-22T09:11:04;8.20;99.90
10826;DHT22;5466;55.898;14.094;2024-03-22T09:13:05;8.20;99.90
10826;DHT22;5466;55.898;14.094;2024-03-22T09:15:06;8.20;99.90
10826;DHT22;5466;55.898;14.094;2024-03-22T09:17:07;8.20;99.90
10826;DHT22;5466;55.898;14.094;2024-03-22T09:19:08;8.30;99.90
10826;DHT22;5466;55.898;14.094;2024-03-22T09:21:08;8.30;99.90
10826;DHT22;5466;55.898;14.094;2024-03-22T09:23:10;8.20;99.90
10826;DHT22;5466;55.898;14.094;2024-03-22T09:25:11;8.30;99.90
10826;DHT22;5466;55.898;14.094;2024-03-22T09:27:12;8.40;99.90
10826;DHT22;5466;55.898;14.094;2024-03-22T09:29:15;8.30;99.90
10826;DHT22;5466;55.898;14.094;2024-03-22T09:31:16;8.40;99.90
10826;DHT22;5466;55.898;14.094;2024-03-22T09:33:16;8.40;99.90
10826;DHT22;5466;55.898;14.094;2024-03-22T09:35:18;8.40;99.90
10826;DHT22;5466;55.898;14.094;2024-03-22T09:37:19;8.50;99.90
10826;DHT22;5466;55.898;14.094;2024-03-22T09:39:19;8.60;99.90
10826;DHT22;5466;55.898;14.094;2024-03-22T09:41:24;8.60;99.90
10826;DHT22;5466;55.898;14.094;2024-03-22T09:43:27;8.60;99.90
10826;DHT22;5466;55.898;14.094;2024-03-22T09:45:29;8.60;99.90
10826;DHT22;5466;55.898;14.094;2024-03-22T09:47:30;8.70;99.90
10826;DHT22;5466;55.898;14.094;2024-03-22T09:49:30;8.70;99.90
10826;DHT22;5466;55.898;14.094;2024-03-22T09:51:31;8.70;99.90
10826;DHT22;5466;55.898;14.094;2024-03-22T09:53:32;8.60;99.90
10826;DHT22;5466;55.898;14.094;2024-03-22T09:55:33;8.60;99.90
10826;DHT22;5466;55.898;14.094;2024-03-22T09:57:38;8.60;99.90
10826;DHT22;5466;55.898;14.094;2024-03-22T09:59:39;8.60;99.90
10826;DHT22;5466;55.898;14.094;2024-03-22T10:01:41;8.60;99.90
10826;DHT22;5466;55.898;14.094;2024-03-22T10:03:43;8.60;99.90
10826;DHT22;5466;55.898;14.094;2024-03-22T10:05:44;8.60;99.90
10826;DHT22;5466;55.898;14.094;2024-03-22T10:07:45;8.60;99.90
10826;DHT22;5466;55.898;14.094;2024-03-22T10:09:45;8.60;99.90
10826;DHT22;5466;55.898;14.094;2024-03-22T10:11:46;8.60;99.90
10826;DHT22;5466;55.898;14.094;2024-03-22T10:13:48;8.60;99.90
10826;DHT22;5466;55.898;14.094;2024-03-22T10:15:51;8.60;99.90
10826;DHT22;5466;55.898;14.094;2024-03-22T10:17:52;8.60;99.90
10826;DHT22;5466;55.898;14.094;2024-03-22T10:19:56;8.70;99.90
10826;DHT22;5466;55.898;14.094;2024-03-22T10:22:00;8.80;99.90
10826;DHT22;5466;55.898;14.094;2024-03-22T10:24:01;9.00;99.90
10826;DHT22;5466;55.898;14.094;2024-03-22T10:26:02;9.10;99.90
10826;DHT22;5466;55.898;14.094;2024-03-22T10:28:04;9.30;99.90
10826;DHT22;5466;55.898;14.094;2024-03-22T10:30:08;9.40;99.90
10826;DHT22;5466;55.898;14.094;2024-03-22T10:32:09;9.50;99.90
10826;DHT22;5466;55.898;14.094;2024-03-22T10:34:11;9.30;99.90
10826;DHT22;5466;55.898;14.094;2024-03-22T10:36:13;9.40;99.90
10826;DHT22;5466;55.898;14.094;2024-03-22T10:38:14;9.40;99.90
10826;DHT22;5466;55.898;14.094;2024-03-22T10:40:17;9.40;99.90
10826;DHT22;5466;55.898;14.094;2024-03-22T10:42:18;9.50;99.90
10826;DHT22;5466;55.898;14.094;2024-03-22T10:44:19;9.70;99.90
10826;DHT22;5466;55.898;14.094;2024-03-22T10:46:20;9.90;99.90
10826;DHT22;5466;55.898;14.094;2024-03-22T10:48:24;10.00;99.90
10826;DHT22;5466;55.898;14.094;2024-03-22T10:50:27;10.10;99.90
10826;DHT22;5466;55.898;14.094;2024-03-22T10:52:30;10.10;99.90
10826;DHT22;5466;55.898;14.094;2024-03-22T10:54:35;10.00;99.90
10826;DHT22;5466;55.898;14.094;2024-03-22T10:56:38;9.90;99.90
10826;DHT22;5466;55.898;14.094;2024-03-22T10:58:40;9.80;99.90
10826;DHT22;5466;55.898;14.094;2024-03-22T11:00:42;9.70;99.90
10826;DHT22;5466;55.898;14.094;2024-03-22T11:02:44;9.60;99.90
10826;DHT22;5466;55.898;14.094;2024-03-22T11:04:54;9.50;99.90
10826;DHT22;5466;55.898;14.094;2024-03-22T11:06:59;9.50;99.90
10826;DHT22;5466;55.898;14.094;2024-03-22T11:09:00;9.60;99.90
10826;DHT22;5466;55.898;14.094;2024-03-22T11:11:11;9.70;99.90
10826;DHT22;5466;55.898;14.094;2024-03-22T11:13:11;9.90;99.90
10826;DHT22;5466;55.898;14.094;2024-03-22T11:15:12;10.00;99.90
10826;DHT22;5466;55.898;14.094;2024-03-22T11:17:13;9.90;99.90
10826;DHT22;5466;55.898;14.094;2024-03-22T11:19:15;9.90;99.90
10826;DHT22;5466;55.898;14.094;2024-03-22T11:21:15;9.90;99.90
10826;DHT22;5466;55.898;14.094;2024-03-22T11:23:16;9.90;99.90
10826;DHT22;5466;55.898;14.094;2024-03-22T11:25:17;9.90;99.90
10826;DHT22;5466;55.898;14.094;2024-03-22T11:27:19;9.80;99.90
10826;DHT22;5466;55.898;14.094;2024-03-22T11:29:20;9.70;99.90
10826;DHT22;5466;55.898;14.094;2024-03-22T11:31:21;9.70;99.90
10826;DHT22;5466;55.898;14.094;2024-03-22T11:33:25;9.60;99.90
10826;DHT22;5466;55.898;14.094;2024-03-22T11:35:27;9.50;99.90
10826;DHT22;5466;55.898;14.094;2024-03-22T11:37:28;9.50;99.90
10826;DHT22;5466;55.898;14.094;2024-03-22T11:39:28;9.50;99.90
10826;DHT22;5466;55.898;14.094;2024-03-22T11:41:30;9.60;99.90
10826;DHT22;5466;55.898;14.094;2024-03-22T11:43:32;9.50;99.90
10826;DHT22;5466;55.898;14.094;2024-03-22T11:45:33;9.60;99.90
10826;DHT22;5466;55.898;14.094;2024-03-22T11:47:35;9.60;99.90
10826;DHT22;5466;55.898;14.094;2024-03-22T11:49:35;9.60;99.90
10826;DHT22;5466;55.898;14.094;2024-03-22T11:51:37;9.60;99.90
10826;DHT22;5466;55.898;14.094;2024-03-22T11:53:38;9.50;99.90
10826;DHT22;5466;55.898;14.094;2024-03-22T11:55:39;9.40;99.90
10826;DHT22;5466;55.898;14.094;2024-03-22T11:57:47;9.50;99.90
10826;DHT22;5466;55.898;14.094;2024-03-22T11:59:48;9.60;99.90
10826;DHT22;5466;55.898;14.094;2024-03-22T12:01:48;9.70;99.90
10826;DHT22;5466;55.898;14.094;2024-03-22T12:03:49;9.80;99.90
10826;DHT22;5466;55.898;14.094;2024-03-22T12:05:50;9.80;99.90
10826;DHT22;5466;55.898;14.094;2024-03-22T12:07:52;9.80;99.90
10826;DHT22;5466;55.898;14.094;2024-03-22T12:09:53;9.60;99.90
10826;DHT22;5466;55.898;14.094;2024-03-22T12:11:55;9.60;99.90
10826;DHT22;5466;55.898;14.094;2024-03-22T12:13:56;9.50;99.90
10826;DHT22;5466;55.898;14.094;2024-03-22T12:15:56;9.40;99.90
10826;DHT22;5466;55.898;14.094;2024-03-22T12:17:57;9.30;99.90
10826;DHT22;5466;55.898;14.094;2024-03-22T12:19:57;9.30;99.90
10826;DHT22;5466;55.898;14.094;2024-03-22T12:21:58;9.20;99.90
10826;DHT22;5466;55.898;14.094;2024-03-22T12:23:59;9.10;99.90
10826;DHT22;5466;55.898;14.094;2024-03-22T12:25:59;9.10;99.90
10826;DHT22;5466;55.898;14.094;2024-03-22T12:28:00;9.10;99.90
10826;DHT22;5466;55.898;14.094;2024-03-22T12:30:01;9.00;99.90
10826;DHT22;5466;55.898;14.094;2024-03-22T12:32:02;9.00;99.90
10826;DHT22;5466;55.898;14.094;2024-03-22T12:34:04;9.10;99.90
10826;DHT22;5466;55.898;14.094;2024-03-22T12:36:05;9.00;99.90
10826;DHT22;5466;55.898;14.094;2024-03-22T12:38:05;9.00;99.90
10826;DHT22;5466;55.898;14.094;2024-03-22T12:40:06;9.00;99.90
10826;DHT22;5466;55.898;14.094;2024-03-22T12:42:08;9.00;99.90
10826;DHT22;5466;55.898;14.094;2024-03-22T12:44:09;9.00;99.90
10826;DHT22;5466;55.898;14.094;2024-03-22T12:46:10;9.00;99.90
10826;DHT22;5466;55.898;14.094;2024-03-22T12:48:10;9.00;99.90
10826;DHT22;5466;55.898;14.094;2024-03-22T12:50:11;9.00;99.90
10826;DHT22;5466;55.898;14.094;2024-03-22T12:52:13;9.10;99.90
10826;DHT22;5466;55.898;14.094;2024-03-22T12:54:14;9.10;99.90
10826;DHT22;5466;55.898;14.094;2024-03-22T12:56:15;9.10;99.90